Time;durP1;ratioP1;P1;durP2;ratioP2;P2;SDS_P1;SDS_P2;PMS_P1;PMS_P2;Temp;Humidity;BMP_temperature;BMP_pressure;BME280_temperature;BME280_humidity;BME280_pressure;Samples;Min_cycle;Max_cycle;Signal;HPM_P1;HPM_P2
2023/05/19 00:01:58;;;;;;;7.23;3.30;;;14.40;99.90;;;;;;5064063;28;20453;-54
2023/05/19 00:04:25;;;;;;;5.80;3.23;;;14.50;99.90;;;;;;5067746;28;20438;-53
2023/05/19 00:06:52;;;;;;;5.33;3.40;;;14.50;99.90;;;;;;5077188;28;20433;-53
2023/05/19 00:09:18;;;;;;;5.03;2.90;;;14.50;99.90;;;;;;5069075;28;20515;-54
2023/05/19 00:11:44;;;;;;;3.10;2.70;;;14.80;99.90;;;;;;5083735;28;20433;-53
2023/05/19 00:14:10;;;;;;;4.70;3.20;;;14.50;99.90;;;;;;5073803;28;20444;-52
2023/05/19 00:16:37;;;;;;;4.27;3.40;;;14.50;99.90;;;;;;5063202;28;20568;-56
2023/05/19 00:19:04;;;;;;;2.73;2.53;;;14.50;99.90;;;;;;5065585;28;20448;-52
2023/05/19 00:21:30;;;;;;;4.03;2.90;;;14.40;99.90;;;;;;5073719;28;20771;-54
2023/05/19 00:23:57;;;;;;;7.40;3.00;;;14.40;99.90;;;;;;5066677;28;20444;-55
2023/05/19 00:26:23;;;;;;;3.33;2.40;;;14.40;99.90;;;;;;5071017;28;20521;-54
2023/05/19 00:28:50;;;;;;;4.50;2.87;;;14.20;99.90;;;;;;5070643;28;20446;-52
2023/05/19 00:31:15;;;;;;;5.03;2.90;;;14.10;99.90;;;;;;5070058;28;20478;-53
2023/05/19 00:33:41;;;;;;;4.97;3.10;;;14.10;99.90;;;;;;5068013;28;20480;-52
2023/05/19 00:36:07;;;;;;;3.50;3.07;;;14.00;99.90;;;;;;5061567;28;20203;-54
2023/05/19 00:38:34;;;;;;;3.50;2.70;;;13.90;99.90;;;;;;5078330;28;20190;-56
2023/05/19 00:41:01;;;;;;;4.73;3.50;;;13.90;99.90;;;;;;5077477;28;20798;-53
2023/05/19 00:43:29;;;;;;;5.20;2.83;;;13.80;99.90;;;;;;5057024;28;20473;-54
2023/05/19 00:45:55;;;;;;;11.53;3.13;;;13.10;99.90;;;;;;5060636;28;20523;-53
2023/05/19 00:48:21;;;;;;;4.83;3.30;;;13.90;99.90;;;;;;5066694;28;20811;-54
2023/05/19 00:50:48;;;;;;;3.20;2.90;;;13.90;99.90;;;;;;5072668;28;20461;-54
2023/05/19 00:53:16;;;;;;;4.13;2.73;;;13.80;99.90;;;;;;5066885;28;20442;-53
2023/05/19 00:55:42;;;;;;;4.50;2.80;;;13.80;99.90;;;;;;5072573;28;20496;-53
2023/05/19 00:58:10;;;;;;;5.43;3.10;;;13.70;99.90;;;;;;5062781;28;20480;-56
2023/05/19 01:00:37;;;;;;;6.00;3.40;;;13.70;99.90;;;;;;5063786;28;20448;-54
2023/05/19 01:03:09;;;;;;;3.80;2.77;;;13.60;99.90;;;;;;5066836;28;20504;-52
2023/05/19 01:05:48;;;;;;;3.20;2.60;;;13.50;99.90;;;;;;5067311;28;20478;-55
2023/05/19 01:08:15;;;;;;;4.77;3.20;;;13.50;99.90;;;;;;5068454;28;20445;-53
2023/05/19 01:10:40;;;;;;;4.17;3.33;;;13.50;99.90;;;;;;5061812;28;21094;-54
2023/05/19 01:13:07;;;;;;;3.50;2.97;;;13.50;99.90;;;;;;5070731;28;20441;-56
2023/05/19 01:15:56;;;;;;;5.83;3.10;;;13.30;99.90;;;;;;5072237;28;20318;-55
2023/05/19 01:18:36;;;;;;;3.40;2.97;;;13.30;99.90;;;;;;5073315;28;21093;-52
2023/05/19 01:21:22;;;;;;;4.10;3.07;;;13.20;99.90;;;;;;5069298;28;20448;-54
2023/05/19 01:23:55;;;;;;;3.20;2.90;;;13.20;99.90;;;;;;5070409;28;20567;-54
2023/05/19 01:26:56;;;;;;;5.33;4.10;;;13.20;99.90;;;;;;5068754;28;20450;-52
2023/05/19 01:29:52;;;;;;;4.70;3.40;;;13.00;99.90;;;;;;5062175;28;20456;-54
2023/05/19 01:32:22;;;;;;;4.83;3.47;;;12.90;99.90;;;;;;5077339;28;20481;-56
2023/05/19 01:34:49;;;;;;;6.80;3.67;;;12.80;99.90;;;;;;5068211;28;20488;-55
2023/05/19 01:37:16;;;;;;;6.30;3.50;;;12.90;99.90;;;;;;5061689;28;20830;-53
2023/05/19 01:39:43;;;;;;;3.73;3.30;;;12.90;99.90;;;;;;5067176;28;20446;-55
2023/05/19 01:42:10;;;;;;;5.10;3.53;;;12.80;99.90;;;;;;5068018;28;20485;-53
2023/05/19 01:44:36;;;;;;;3.87;3.30;;;12.80;99.90;;;;;;5073030;28;20452;-55
2023/05/19 01:47:03;;;;;;;5.03;3.33;;;12.80;99.90;;;;;;5081141;28;20449;-52
2023/05/19 01:49:29;;;;;;;3.80;3.03;;;12.80;99.90;;;;;;5073001;28;20503;-52
2023/05/19 01:51:55;;;;;;;4.13;3.03;;;12.70;99.90;;;;;;5074029;28;20442;-52
2023/05/19 01:54:20;;;;;;;3.57;3.27;;;12.60;99.90;;;;;;5083306;28;20572;-57
2023/05/19 01:56:57;;;;;;;6.63;3.50;;;12.60;99.90;;;;;;5067852;28;20254;-54
2023/05/19 01:59:30;;;;;;;3.60;3.20;;;12.50;99.90;;;;;;5077106;28;20190;-52
2023/05/19 02:01:59;;;;;;;3.43;3.20;;;12.60;99.90;;;;;;5061776;28;20450;-52
2023/05/19 02:04:47;;;;;;;4.10;3.30;;;12.60;99.90;;;;;;5063625;28;20441;-54
2023/05/19 02:07:25;;;;;;;4.00;3.17;;;12.50;99.90;;;;;;5073551;28;20938;-55
2023/05/19 02:10:07;;;;;;;6.40;3.90;;;12.50;99.90;;;;;;5062945;28;20438;-53
2023/05/19 02:12:39;;;;;;;6.53;3.67;;;12.50;99.90;;;;;;5073603;28;20446;-55
2023/05/19 02:15:15;;;;;;;4.37;3.57;;;12.50;99.90;;;;;;5063686;28;20821;-54
2023/05/19 02:17:46;;;;;;;4.73;3.40;;;12.50;99.90;;;;;;5066336;28;20540;-55
2023/05/19 02:20:13;;;;;;;3.90;3.30;;;12.50;99.90;;;;;;5068667;28;20599;-52
2023/05/19 02:22:38;;;;;;;3.63;3.30;;;12.50;99.90;;;;;;5062315;28;20871;-53
2023/05/19 02:25:04;;;;;;;4.33;3.17;;;12.50;99.90;;;;;;5075215;28;20477;-53
2023/05/19 02:27:30;;;;;;;4.97;3.60;;;12.50;99.90;;;;;;5068035;28;20476;-55
2023/05/19 02:29:56;;;;;;;6.23;4.20;;;12.40;99.90;;;;;;5059539;28;20454;-53
2023/05/19 02:32:22;;;;;;;4.67;3.27;;;12.10;99.90;;;;;;5064838;28;20613;-53
2023/05/19 02:34:47;;;;;;;4.00;3.40;;;12.00;99.90;;;;;;5065561;28;20489;-52
2023/05/19 02:37:14;;;;;;;6.00;4.37;;;12.80;99.90;;;;;;5064874;28;20184;-52
2023/05/19 02:39:43;;;;;;;5.90;4.07;;;12.10;99.90;;;;;;5058302;28;20670;-56
2023/05/19 02:42:10;;;;;;;5.10;4.70;;;12.10;99.90;;;;;;5066151;28;20979;-53
2023/05/19 02:44:36;;;;;;;4.37;3.83;;;12.20;99.90;;;;;;5067031;28;20529;-53
2023/05/19 02:47:02;;;;;;;7.50;4.50;;;12.20;99.90;;;;;;5066618;28;20541;-54
2023/05/19 02:49:34;;;;;;;4.63;3.73;;;12.20;99.90;;;;;;5066848;28;20257;-53
2023/05/19 02:52:03;;;;;;;4.27;3.87;;;12.30;99.90;;;;;;5062311;28;20195;-54
2023/05/19 02:54:33;;;;;;;6.93;4.60;;;12.30;99.90;;;;;;5072150;28;20437;-51
2023/05/19 02:57:00;;;;;;;5.37;3.97;;;12.30;99.90;;;;;;5082883;28;20462;-53
2023/05/19 02:59:25;;;;;;;4.40;3.97;;;12.30;99.90;;;;;;5070841;28;20883;-54
2023/05/19 03:01:58;;;;;;;6.43;4.07;;;12.30;99.90;;;;;;5077330;28;20505;-54
2023/05/19 03:04:24;;;;;;;6.43;3.53;;;12.20;99.90;;;;;;5070201;28;21744;-53
2023/05/19 03:06:49;;;;;;;5.60;3.60;;;12.20;99.90;;;;;;5067144;28;20544;-54
2023/05/19 03:09:15;;;;;;;4.93;4.27;;;12.20;99.90;;;;;;5076032;28;20195;-51
2023/05/19 03:11:41;;;;;;;5.27;4.10;;;12.20;99.90;;;;;;5071061;28;20545;-52
2023/05/19 03:14:09;;;;;;;4.77;4.20;;;12.20;99.90;;;;;;5086115;28;20213;-52
2023/05/19 03:16:35;;;;;;;3.80;3.50;;;12.20;99.90;;;;;;5065747;28;20249;-54
2023/05/19 03:19:00;;;;;;;4.40;4.00;;;12.00;99.90;;;;;;5074965;28;20473;-51
2023/05/19 03:21:26;;;;;;;4.80;3.80;;;12.00;99.90;;;;;;5077544;28;20183;-53
2023/05/19 03:23:53;;;;;;;7.03;4.50;;;11.90;99.90;;;;;;5065349;28;20216;-52
2023/05/19 03:26:19;;;;;;;5.20;4.00;;;11.70;1.00;;;;;;5076628;28;20194;-54
2023/05/19 03:28:44;;;;;;;7.23;3.70;;;11.60;1.00;;;;;;5069659;28;20595;-53
2023/05/19 03:31:10;;;;;;;5.87;4.30;;;11.70;1.00;;;;;;5067730;28;20190;-54
2023/05/19 03:33:35;;;;;;;8.83;6.80;;;11.70;1.00;;;;;;5070614;28;20206;-54
2023/05/19 03:36:03;;;;;;;6.43;4.33;;;11.70;1.00;;;;;;5079695;28;20214;-55
2023/05/19 03:38:28;;;;;;;5.40;4.90;;;11.80;1.00;;;;;;5072386;28;21622;-53
2023/05/19 03:40:54;;;;;;;7.00;4.13;;;11.90;1.00;;;;;;5076123;28;20436;-55
2023/05/19 03:43:19;;;;;;;5.80;3.50;;;12.00;1.00;;;;;;5073511;28;20677;-53
2023/05/19 03:45:45;;;;;;;4.20;3.80;;;12.00;1.00;;;;;;5078368;28;20232;-56
2023/05/19 03:48:11;;;;;;;5.33;3.50;;;11.90;1.00;;;;;;5084171;28;20183;-56
2023/05/19 03:50:37;;;;;;;7.83;3.77;;;12.00;1.00;;;;;;5078653;28;20244;-56
2023/05/19 03:53:02;;;;;;;3.37;3.07;;;12.00;1.00;;;;;;5075360;28;20229;-55
2023/05/19 03:55:28;;;;;;;3.80;3.03;;;12.10;1.00;;;;;;5070187;28;20572;-56
2023/05/19 03:57:55;;;;;;;4.37;3.40;;;12.20;1.00;;;;;;5066264;28;20220;-55
2023/05/19 04:00:21;;;;;;;3.90;3.50;;;12.20;1.00;;;;;;5067171;28;20448;-55
2023/05/19 04:02:46;;;;;;;4.60;3.27;;;12.20;1.00;;;;;;5067709;28;20516;-52
2023/05/19 04:05:13;;;;;;;7.00;3.90;;;12.20;1.00;;;;;;5070295;28;20188;-56
2023/05/19 04:07:39;;;;;;;5.00;3.87;;;12.30;1.00;;;;;;5068625;28;20204;-55
2023/05/19 04:10:06;;;;;;;4.70;3.70;;;12.30;1.00;;;;;;5080507;28;20447;-54
2023/05/19 04:12:31;;;;;;;5.40;4.23;;;12.20;1.00;;;;;;5076022;28;20445;-52
2023/05/19 04:14:57;;;;;;;3.83;3.00;;;12.10;1.00;;;;;;5065936;28;20602;-54
2023/05/19 04:17:25;;;;;;;3.70;3.30;;;12.20;1.00;;;;;;5059123;28;20191;-55
2023/05/19 04:19:51;;;;;;;3.33;3.10;;;12.20;1.00;;;;;;5072220;28;20450;-52
2023/05/19 04:22:17;;;;;;;6.27;3.63;;;12.40;1.00;;;;;;5074080;28;20437;-54
2023/05/19 04:24:42;;;;;;;3.80;3.03;;;12.50;1.00;;;;;;5070780;28;20434;-55
2023/05/19 04:27:10;;;;;;;5.07;4.57;;;12.50;1.00;;;;;;5079509;28;20655;-54
2023/05/19 04:29:37;;;;;;;3.67;3.23;;;12.50;1.00;;;;;;5069811;28;20192;-54
2023/05/19 04:32:06;;;;;;;3.60;3.30;;;12.60;1.00;;;;;;5079133;28;20441;-54
2023/05/19 04:34:33;;;;;;;8.13;3.83;;;12.60;1.00;;;;;;5069795;28;20442;-54
2023/05/19 04:37:00;;;;;;;3.87;3.47;;;12.60;1.00;;;;;;5082980;28;20458;-56
2023/05/19 04:39:25;;;;;;;4.50;3.70;;;12.70;1.00;;;;;;5078133;28;20934;-55
2023/05/19 04:41:52;;;;;;;5.40;3.80;;;12.70;1.00;;;;;;5067095;28;20457;-53
2023/05/19 04:44:18;;;;;;;12.23;3.97;;;12.80;1.00;;;;;;5067124;28;20184;-54
2023/05/19 04:46:44;;;;;;;4.30;3.50;;;12.90;1.00;;;;;;5077509;28;20795;-53
2023/05/19 04:49:13;;;;;;;5.87;2.97;;;13.00;1.00;;;;;;5071851;28;20192;-54
2023/05/19 04:51:40;;;;;;;5.70;3.67;;;13.10;1.00;;;;;;5066784;28;20450;-51
2023/05/19 04:54:09;;;;;;;6.23;3.13;;;13.10;1.00;;;;;;5067948;28;20824;-52
2023/05/19 04:56:35;;;;;;;6.77;4.20;;;13.00;1.00;;;;;;5071065;28;20489;-54
2023/05/19 04:59:01;;;;;;;4.20;3.80;;;12.90;1.00;;;;;;5067605;28;20442;-56
2023/05/19 05:01:26;;;;;;;4.63;4.23;;;12.80;1.00;;;;;;5078795;28;20943;-53
2023/05/19 05:03:54;;;;;;;4.90;3.50;;;12.70;1.00;;;;;;5071430;28;20631;-55
2023/05/19 05:06:21;;;;;;;7.03;3.57;;;12.70;1.00;;;;;;5073055;28;20715;-57
2023/05/19 05:08:47;;;;;;;5.10;3.63;;;12.90;1.00;;;;;;5069493;28;20475;-54
2023/05/19 05:11:13;;;;;;;3.60;3.30;;;13.20;99.90;;;;;;5077829;28;20457;-53
2023/05/19 05:13:39;;;;;;;4.90;3.40;;;13.40;99.90;;;;;;5072375;28;20608;-54
2023/05/19 05:16:07;;;;;;;3.83;3.40;;;13.60;99.90;;;;;;5074090;28;20207;-54
2023/05/19 05:18:33;;;;;;;4.97;3.70;;;13.70;99.90;;;;;;5065857;28;20496;-55
2023/05/19 05:20:59;;;;;;;6.80;3.40;;;13.80;99.90;;;;;;5070389;28;20476;-52
2023/05/19 05:23:25;;;;;;;6.90;3.10;;;13.90;99.90;;;;;;5067002;28;20445;-55
2023/05/19 05:25:51;;;;;;;3.63;3.33;;;14.10;99.90;;;;;;5070182;28;20514;-54
2023/05/19 05:28:17;;;;;;;4.03;3.20;;;14.00;99.90;;;;;;5076591;28;20529;-54
2023/05/19 05:30:43;;;;;;;6.77;3.77;;;14.20;99.90;;;;;;5066525;28;20494;-55
2023/05/19 05:33:10;;;;;;;3.80;3.20;;;14.50;99.90;;;;;;5069000;28;20204;-53
2023/05/19 05:35:36;;;;;;;5.40;3.80;;;14.60;99.90;;;;;;5069091;28;20999;-56
2023/05/19 05:38:02;;;;;;;4.23;3.33;;;14.70;99.90;;;;;;5073870;28;20537;-55
2023/05/19 05:40:28;;;;;;;6.17;3.33;;;14.80;99.90;;;;;;5066481;28;20263;-53
2023/05/19 05:42:57;;;;;;;4.07;3.67;;;14.90;99.90;;;;;;5067566;28;20453;-54
2023/05/19 05:45:23;;;;;;;5.80;3.80;;;15.10;99.90;;;;;;5064075;28;20880;-56
2023/05/19 05:47:49;;;;;;;5.60;3.70;;;15.00;99.90;;;;;;5066348;28;20573;-55
2023/05/19 05:50:16;;;;;;;6.40;3.97;;;15.00;99.90;;;;;;5068086;28;20191;-53
2023/05/19 05:52:47;;;;;;;6.00;4.13;;;14.90;99.90;;;;;;5067390;28;20591;-53
2023/05/19 05:55:14;;;;;;;5.00;4.47;;;14.80;99.90;;;;;;5071060;28;20504;-54
2023/05/19 05:57:42;;;;;;;6.33;4.13;;;14.70;99.90;;;;;;5072047;28;20553;-56
2023/05/19 06:00:14;;;;;;;4.23;3.60;;;14.70;99.90;;;;;;5066123;28;20438;-55
2023/05/19 06:02:45;;;;;;;6.40;4.30;;;14.70;99.90;;;;;;5064899;28;20450;-55
2023/05/19 06:05:11;;;;;;;4.30;3.90;;;14.80;99.90;;;;;;5074574;28;20455;-54
2023/05/19 06:07:37;;;;;;;5.40;4.17;;;15.10;99.90;;;;;;5074280;28;20449;-55
2023/05/19 06:10:04;;;;;;;5.50;4.07;;;15.40;99.90;;;;;;5066789;28;20446;-54
2023/05/19 06:12:29;;;;;;;5.10;3.90;;;16.00;99.90;;;;;;5063845;28;20486;-55
2023/05/19 06:14:55;;;;;;;9.10;3.50;;;15.20;99.90;;;;;;5067263;28;20462;-55
2023/05/19 06:17:21;;;;;;;6.10;3.70;;;15.30;99.90;;;;;;5067742;28;20733;-54
2023/05/19 06:19:46;;;;;;;5.47;3.90;;;15.60;99.90;;;;;;5075118;28;20644;-54
2023/05/19 06:22:12;;;;;;;4.77;3.83;;;15.80;99.90;;;;;;5083246;28;20172;-56
2023/05/19 06:24:38;;;;;;;4.10;3.00;;;16.10;99.90;;;;;;5081742;28;20526;-53
2023/05/19 06:27:03;;;;;;;4.23;3.83;;;16.60;99.90;;;;;;5070319;28;20183;-53
2023/05/19 06:29:29;;;;;;;5.80;3.60;;;17.20;99.90;;;;;;5077133;28;20687;-54
2023/05/19 06:31:55;;;;;;;5.40;3.70;;;17.80;99.90;;;;;;5063053;28;20254;-54
2023/05/19 06:34:20;;;;;;;4.80;3.13;;;18.20;99.90;;;;;;5061606;28;20215;-55
2023/05/19 06:36:46;;;;;;;5.50;3.30;;;18.50;99.90;;;;;;5066387;28;20219;-55
2023/05/19 06:39:12;;;;;;;3.40;3.10;;;18.50;99.90;;;;;;5071528;28;20172;-54
2023/05/19 06:41:37;;;;;;;5.13;2.97;;;18.20;99.90;;;;;;5074285;28;20228;-54
2023/05/19 06:44:05;;;;;;;3.93;2.93;;;18.00;99.90;;;;;;5079930;28;20184;-55
2023/05/19 06:46:30;;;;;;;4.27;3.77;;;18.00;99.90;;;;;;5069593;28;20225;-54
2023/05/19 06:48:56;;;;;;;5.03;3.67;;;18.10;99.90;;;;;;5085770;28;20469;-55
2023/05/19 06:51:22;;;;;;;4.67;4.03;;;17.90;99.90;;;;;;5075409;28;20715;-57
2023/05/19 06:53:48;;;;;;;7.53;3.90;;;17.50;99.90;;;;;;5083076;28;20215;-54
2023/05/19 06:56:14;;;;;;;8.47;4.63;;;16.80;99.90;;;;;;5065879;28;20211;-53
2023/05/19 06:58:40;;;;;;;6.93;4.03;;;16.60;99.90;;;;;;5067296;28;20470;-53
2023/05/19 07:01:06;;;;;;;5.87;3.80;;;16.50;99.90;;;;;;5067332;28;20987;-54
2023/05/19 07:03:31;;;;;;;10.17;4.30;;;16.40;99.90;;;;;;5066007;28;20191;-55
2023/05/19 07:05:57;;;;;;;6.50;4.87;;;16.60;99.90;;;;;;5065733;28;20229;-53
2023/05/19 07:08:22;;;;;;;4.90;4.43;;;16.70;99.90;;;;;;5072555;28;20214;-53
2023/05/19 07:10:48;;;;;;;5.10;4.40;;;16.80;99.90;;;;;;5069946;28;20242;-52
2023/05/19 07:13:14;;;;;;;5.20;4.20;;;16.60;99.90;;;;;;5070298;28;20202;-54
2023/05/19 07:15:39;;;;;;;5.53;3.97;;;16.50;99.90;;;;;;5073137;28;20208;-55
2023/05/19 07:18:05;;;;;;;5.50;4.27;;;16.50;99.90;;;;;;5074002;28;20184;-55
2023/05/19 07:20:31;;;;;;;4.73;4.33;;;16.60;99.90;;;;;;5066180;28;20184;-55
2023/05/19 07:22:56;;;;;;;5.73;4.27;;;16.80;99.90;;;;;;5064616;28;20210;-55
2023/05/19 07:25:22;;;;;;;6.60;4.30;;;16.90;99.90;;;;;;5063991;28;20203;-53
2023/05/19 07:27:48;;;;;;;6.60;4.00;;;17.00;99.90;;;;;;5079166;28;20544;-54
2023/05/19 07:30:13;;;;;;;4.80;3.90;;;17.00;99.90;;;;;;5069922;28;20453;-52
2023/05/19 07:32:39;;;;;;;8.10;4.70;;;17.00;99.90;;;;;;5083466;28;20191;-54
2023/05/19 07:35:05;;;;;;;6.93;4.60;;;17.30;99.90;;;;;;5072584;28;20299;-54
2023/05/19 07:37:31;;;;;;;4.87;3.57;;;17.70;99.90;;;;;;5073311;28;20210;-55
2023/05/19 07:39:56;;;;;;;5.13;3.53;;;17.90;99.90;;;;;;5065162;28;20446;-53
2023/05/19 07:42:22;;;;;;;4.63;4.10;;;18.00;99.90;;;;;;5068070;28;20199;-52
2023/05/19 07:44:47;;;;;;;4.83;3.90;;;17.90;99.90;;;;;;5070349;28;20206;-54
2023/05/19 07:47:13;;;;;;;3.27;2.97;;;17.90;99.90;;;;;;5066885;28;20183;-55
2023/05/19 07:49:39;;;;;;;5.03;3.03;;;17.70;99.90;;;;;;5069395;28;20271;-53
2023/05/19 07:52:05;;;;;;;8.70;3.77;;;17.70;99.90;;;;;;5071821;28;20184;-54
2023/05/19 07:54:30;;;;;;;3.97;3.57;;;17.80;99.90;;;;;;5074475;28;20191;-53
2023/05/19 07:56:56;;;;;;;3.93;3.37;;;17.90;99.90;;;;;;5074564;28;20649;-55
2023/05/19 07:59:21;;;;;;;5.40;3.63;;;17.90;99.90;;;;;;5080106;28;20211;-53
2023/05/19 08:01:47;;;;;;;4.80;3.23;;;17.90;99.90;;;;;;5086036;28;20635;-56
2023/05/19 08:04:13;;;;;;;3.00;2.70;;;17.70;99.90;;;;;;5068650;28;20242;-53
2023/05/19 08:06:41;;;;;;;8.80;3.37;;;17.40;99.90;;;;;;5072192;28;20485;-53
2023/05/19 08:09:07;;;;;;;5.70;3.13;;;17.30;99.90;;;;;;5078872;28;20196;-54
2023/05/19 08:11:32;;;;;;;3.10;2.80;;;17.60;99.90;;;;;;5076414;28;20452;-53
2023/05/19 08:13:58;;;;;;;3.37;3.07;;;17.80;99.90;;;;;;5076839;28;20271;-53
2023/05/19 08:16:24;;;;;;;4.23;3.17;;;17.90;99.90;;;;;;5077543;28;20691;-54
2023/05/19 08:18:50;;;;;;;7.47;3.13;;;17.90;99.90;;;;;;5078683;28;20592;-54
2023/05/19 08:21:16;;;;;;;10.00;3.27;;;17.80;99.90;;;;;;5080781;28;20448;-55
2023/05/19 08:23:41;;;;;;;4.23;3.83;;;17.90;99.90;;;;;;5090790;28;20441;-54
2023/05/19 08:26:07;;;;;;;5.37;3.70;;;18.20;99.90;;;;;;5069005;28;20195;-53
2023/05/19 08:28:32;;;;;;;4.33;3.60;;;18.30;99.90;;;;;;5077740;28;20561;-54
2023/05/19 08:30:58;;;;;;;6.20;3.70;;;19.30;99.90;;;;;;5085118;28;20286;-55
2023/05/19 08:33:24;;;;;;;5.20;3.20;;;18.50;99.90;;;;;;5081441;28;20196;-54
2023/05/19 08:35:49;;;;;;;6.93;3.43;;;18.30;99.90;;;;;;5069847;28;20222;-54
2023/05/19 08:38:15;;;;;;;4.50;3.53;;;18.30;99.90;;;;;;5080535;28;20445;-55
2023/05/19 08:40:41;;;;;;;3.70;3.40;;;18.10;99.90;;;;;;5060450;28;20191;-54
2023/05/19 08:43:07;;;;;;;4.73;4.00;;;18.10;99.90;;;;;;5074172;28;20248;-54
2023/05/19 08:45:33;;;;;;;8.17;3.77;;;18.10;99.90;;;;;;5069320;28;20450;-53
2023/05/19 08:47:59;;;;;;;4.57;3.73;;;18.30;99.90;;;;;;5071676;28;20787;-54
2023/05/19 08:50:32;;;;;;;4.80;4.30;;;18.70;99.90;;;;;;5077100;28;20204;-55
2023/05/19 08:53:03;;;;;;;7.53;4.07;;;18.60;99.90;;;;;;5081274;28;20461;-54
2023/05/19 08:55:53;;;;;;;4.70;4.00;;;18.50;99.90;;;;;;5080811;28;20462;-54
2023/05/19 08:58:20;;;;;;;9.20;3.97;;;18.40;99.90;;;;;;5081847;28;20457;-55
2023/05/19 09:00:47;;;;;;;7.83;4.03;;;18.70;99.90;;;;;;5077024;28;20442;-54
2023/05/19 09:03:14;;;;;;;5.90;3.53;;;19.10;99.90;;;;;;5067527;28;20447;-56
2023/05/19 09:05:40;;;;;;;4.70;3.90;;;19.50;99.90;;;;;;5065233;28;20467;-53
2023/05/19 09:08:06;;;;;;;7.20;3.87;;;19.30;99.90;;;;;;5084841;28;20452;-53
2023/05/19 09:10:32;;;;;;;5.40;3.97;;;19.30;99.90;;;;;;5077754;28;20966;-54
2023/05/19 09:12:57;;;;;;;3.80;3.27;;;19.60;99.90;;;;;;5078301;28;20461;-53
2023/05/19 09:15:29;;;;;;;4.00;2.80;;;19.60;99.90;;;;;;5083603;28;20204;-53
2023/05/19 09:18:07;;;;;;;5.83;2.93;;;19.70;99.90;;;;;;5081421;28;20179;-53
2023/05/19 09:20:37;;;;;;;5.90;3.30;;;19.60;99.90;;;;;;5083930;28;20525;-55
2023/05/19 09:23:02;;;;;;;3.20;2.90;;;19.70;99.90;;;;;;5068252;28;20842;-52
2023/05/19 09:25:28;;;;;;;6.07;3.60;;;19.40;99.90;;;;;;5065586;28;20454;-53
2023/05/19 09:27:54;;;;;;;3.73;3.10;;;19.70;99.90;;;;;;5070475;28;20190;-55
2023/05/19 09:30:20;;;;;;;3.97;3.57;;;20.00;99.90;;;;;;5071403;28;20600;-54
2023/05/19 09:32:46;;;;;;;3.20;2.60;;;20.10;99.90;;;;;;5080684;28;20713;-53
2023/05/19 09:35:12;;;;;;;7.83;3.30;;;20.00;99.90;;;;;;5067715;28;20556;-54
2023/05/19 09:37:42;;;;;;;4.33;3.10;;;19.70;99.90;;;;;;5066182;28;20478;-59
2023/05/19 09:40:09;;;;;;;3.93;2.77;;;19.40;99.90;;;;;;5073369;28;20442;-54
2023/05/19 09:42:38;;;;;;;3.83;3.17;;;19.20;99.90;;;;;;5072501;28;20447;-56
2023/05/19 09:45:05;;;;;;;4.87;2.70;;;19.30;99.90;;;;;;5069474;28;20434;-54
2023/05/19 09:47:35;;;;;;;3.37;3.07;;;19.40;99.90;;;;;;5068441;28;20541;-53
2023/05/19 09:50:01;;;;;;;3.57;2.87;;;19.00;99.90;;;;;;5079792;28;21204;-54
2023/05/19 09:52:27;;;;;;;5.30;2.77;;;18.80;99.90;;;;;;5080788;28;20445;-54
2023/05/19 09:54:54;;;;;;;5.90;3.57;;;18.90;99.90;;;;;;5083026;28;20448;-54
2023/05/19 09:57:32;;;;;;;4.33;3.53;;;19.20;99.90;;;;;;5069622;28;20604;-55
2023/05/19 09:59:58;;;;;;;5.40;3.17;;;19.70;99.90;;;;;;5080411;28;22148;-54
2023/05/19 10:02:25;;;;;;;3.67;3.30;;;20.00;99.90;;;;;;5068749;28;20884;-55
2023/05/19 10:04:51;;;;;;;3.50;3.20;;;20.00;99.90;;;;;;5073526;28;20487;-54
2023/05/19 10:07:18;;;;;;;5.30;4.13;;;19.90;99.90;;;;;;5073727;28;20447;-55
2023/05/19 10:09:44;;;;;;;9.03;4.20;;;19.50;99.90;;;;;;5080566;28;20438;-55
2023/05/19 10:12:12;;;;;;;6.77;4.07;;;19.10;99.90;;;;;;5064562;28;20450;-53
2023/05/19 10:14:37;;;;;;;6.27;3.30;;;18.70;99.90;;;;;;5076999;28;20441;-55
2023/05/19 10:17:04;;;;;;;7.00;4.10;;;18.40;99.90;;;;;;5049358;28;20524;-55
2023/05/19 10:19:29;;;;;;;3.90;3.27;;;18.20;99.90;;;;;;5055151;28;21078;-55
2023/05/19 10:21:55;;;;;;;5.27;3.90;;;17.90;99.90;;;;;;5074930;28;20531;-53
2023/05/19 10:24:21;;;;;;;4.53;3.40;;;17.90;99.90;;;;;;5077755;28;20594;-53
2023/05/19 10:27:01;;;;;;;4.70;3.07;;;18.00;99.90;;;;;;5067817;28;20184;-54
2023/05/19 10:29:33;;;;;;;4.67;3.00;;;18.20;99.90;;;;;;5076941;28;20183;-53
2023/05/19 10:32:03;;;;;;;6.50;3.83;;;18.80;99.90;;;;;;5068816;28;20449;-55
2023/05/19 10:35:01;;;;;;;5.83;3.50;;;19.30;99.90;;;;;;5073338;28;20444;-55
2023/05/19 10:37:52;;;;;;;7.30;4.10;;;19.10;99.90;;;;;;5079862;28;20452;-52
2023/05/19 10:40:26;;;;;;;4.67;2.87;;;18.80;99.90;;;;;;5065903;28;20446;-53
2023/05/19 10:43:26;;;;;;;4.03;3.13;;;18.80;99.90;;;;;;5072782;28;20445;-53
2023/05/19 10:45:53;;;;;;;4.13;3.50;;;18.90;99.90;;;;;;5088452;28;20445;-53
2023/05/19 10:48:21;;;;;;;4.90;3.13;;;19.10;99.90;;;;;;5070628;28;20438;-55
2023/05/19 10:50:47;;;;;;;3.60;3.00;;;19.10;99.90;;;;;;5077032;28;20430;-54
2023/05/19 10:53:17;;;;;;;5.17;2.87;;;19.30;99.90;;;;;;5076630;28;20437;-56
2023/05/19 10:55:54;;;;;;;4.30;3.30;;;19.20;99.90;;;;;;5068087;28;20473;-54
2023/05/19 10:58:42;;;;;;;3.23;2.73;;;19.40;99.90;;;;;;5065816;28;20549;-54
2023/05/19 11:01:13;;;;;;;5.20;3.33;;;19.60;99.90;;;;;;5070708;28;20882;-54
2023/05/19 11:03:46;;;;;;;4.30;3.50;;;19.90;99.90;;;;;;5074925;28;21003;-52
2023/05/19 11:06:31;;;;;;;5.03;3.10;;;19.80;99.90;;;;;;5079428;28;20425;-54
2023/05/19 11:09:00;;;;;;;4.43;3.00;;;19.70;99.90;;;;;;5077532;28;20455;-55
2023/05/19 11:11:42;;;;;;;7.50;3.50;;;19.70;99.90;;;;;;5080416;28;20443;-53
2023/05/19 11:14:13;;;;;;;5.87;3.23;;;19.90;99.90;;;;;;5074173;28;20474;-54
2023/05/19 11:16:44;;;;;;;4.13;3.40;;;19.90;99.90;;;;;;5067569;28;20564;-54
2023/05/19 11:19:29;;;;;;;4.17;3.33;;;20.20;99.90;;;;;;5079790;28;20454;-55
2023/05/19 11:21:56;;;;;;;3.90;2.73;;;20.30;99.90;;;;;;5074701;28;20438;-54
2023/05/19 11:24:37;;;;;;;4.67;3.30;;;20.40;99.90;;;;;;5069038;28;21000;-54
2023/05/19 11:27:31;;;;;;;4.20;3.00;;;20.70;99.90;;;;;;5067010;28;20503;-54
2023/05/19 11:29:59;;;;;;;5.83;2.90;;;20.70;99.90;;;;;;5083269;28;20437;-54
2023/05/19 11:32:27;;;;;;;4.13;3.00;;;20.30;99.90;;;;;;5081031;28;20445;-53
2023/05/19 11:34:54;;;;;;;3.60;3.10;;;20.00;99.90;;;;;;5088502;28;20455;-53
2023/05/19 11:37:20;;;;;;;3.00;2.67;;;20.00;99.90;;;;;;5079398;28;20526;-54
2023/05/19 11:39:46;;;;;;;3.40;3.10;;;20.00;99.90;;;;;;5082870;28;20505;-53
2023/05/19 11:42:12;;;;;;;3.70;2.83;;;20.00;99.90;;;;;;5077735;28;20187;-54
2023/05/19 11:44:39;;;;;;;3.40;3.00;;;20.70;99.90;;;;;;5077313;28;20485;-52
2023/05/19 11:47:06;;;;;;;5.37;3.07;;;21.80;99.90;;;;;;5073832;28;20972;-55
2023/05/19 11:49:32;;;;;;;3.07;2.80;;;21.80;99.90;;;;;;5082019;28;20449;-54
2023/05/19 11:52:01;;;;;;;5.23;3.30;;;21.30;99.90;;;;;;5071937;28;20457;-54
2023/05/19 11:54:35;;;;;;;7.60;3.30;;;20.30;99.90;;;;;;5078938;28;20494;-54
2023/05/19 11:57:02;;;;;;;4.17;3.27;;;20.20;99.90;;;;;;5068041;28;20477;-54
2023/05/19 11:59:32;;;;;;;3.90;3.27;;;19.50;99.90;;;;;;5084047;28;20802;-54
2023/05/19 12:02:02;;;;;;;2.73;2.37;;;19.30;99.90;;;;;;5077355;28;20452;-55
2023/05/19 12:04:28;;;;;;;3.47;2.90;;;19.50;99.90;;;;;;5091289;28;20440;-53
2023/05/19 12:06:53;;;;;;;3.83;3.30;;;19.40;99.90;;;;;;5079676;28;20802;-55
2023/05/19 12:09:22;;;;;;;4.63;2.90;;;19.70;99.90;;;;;;5086497;28;20446;-53
2023/05/19 12:11:49;;;;;;;3.90;3.30;;;19.80;99.90;;;;;;5077105;28;20183;-55
2023/05/19 12:14:17;;;;;;;3.80;3.03;;;19.70;99.90;;;;;;5082138;28;20437;-54
2023/05/19 12:16:42;;;;;;;3.90;2.90;;;19.80;99.90;;;;;;5078235;28;20938;-55
2023/05/19 12:19:09;;;;;;;4.13;3.43;;;19.70;99.90;;;;;;5078057;28;20456;-54
2023/05/19 12:21:34;;;;;;;3.60;3.20;;;19.60;99.90;;;;;;5067440;28;20190;-53
2023/05/19 12:24:00;;;;;;;3.67;3.33;;;19.50;99.90;;;;;;5081928;28;20524;-56
2023/05/19 12:26:26;;;;;;;3.90;3.17;;;19.90;99.90;;;;;;5083745;28;20195;-54
2023/05/19 12:28:52;;;;;;;6.33;3.53;;;20.10;99.90;;;;;;5072890;28;20843;-54
2023/05/19 12:31:22;;;;;;;5.50;3.07;;;20.10;99.90;;;;;;5079060;28;20264;-55
2023/05/19 12:33:51;;;;;;;3.40;3.10;;;20.60;99.90;;;;;;5074377;28;20948;-53
2023/05/19 12:36:17;;;;;;;3.27;2.80;;;21.00;99.90;;;;;;5068655;28;20719;-54
2023/05/19 12:38:44;;;;;;;4.07;3.17;;;21.20;99.90;;;;;;5089966;28;20441;-54
2023/05/19 12:41:11;;;;;;;3.40;3.10;;;20.80;99.90;;;;;;5071011;28;20448;-53
2023/05/19 12:43:38;;;;;;;4.13;3.70;;;20.50;99.90;;;;;;5069244;28;20460;-54
2023/05/19 12:46:14;;;;;;;4.40;3.37;;;20.50;99.90;;;;;;5069829;28;20792;-55
2023/05/19 12:48:43;;;;;;;3.83;3.27;;;20.40;99.90;;;;;;5071593;28;20469;-56
2023/05/19 12:51:09;;;;;;;4.00;3.17;;;20.10;99.90;;;;;;5086879;28;20506;-54
2023/05/19 12:53:36;;;;;;;4.63;3.40;;;20.10;99.90;;;;;;5079709;28;20438;-55